createdAt,value
2019-05-18T00:01:54.979Z,14.40
2019-05-18T00:04:25.360Z,14.40
2019-05-18T00:06:56.763Z,14.50
2019-05-18T00:09:27.179Z,14.50
2019-05-18T00:11:57.603Z,14.50
2019-05-18T00:14:29.622Z,14.50
2019-05-18T00:17:01.018Z,14.50
2019-05-18T00:19:31.378Z,14.50
2019-05-18T00:22:02.708Z,14.50
2019-05-18T00:24:33.063Z,14.40
2019-05-18T00:27:03.477Z,14.40
2019-05-18T00:29:35.534Z,14.30
2019-05-18T00:32:05.941Z,14.30
2019-05-18T00:34:36.375Z,14.20
2019-05-18T00:37:06.721Z,14.10
2019-05-18T00:39:37.099Z,14.10
2019-05-18T00:42:07.407Z,14.10
2019-05-18T00:44:37.806Z,14.10
2019-05-18T00:47:08.166Z,14.10
2019-05-18T00:49:38.528Z,14.00
2019-05-18T00:52:08.887Z,14.00
2019-05-18T00:54:39.331Z,14.00
2019-05-18T00:57:09.712Z,14.10
2019-05-18T00:59:40.032Z,14.10
2019-05-18T01:02:10.416Z,14.10
2019-05-18T01:04:40.786Z,14.10
2019-05-18T01:07:11.157Z,14.10
2019-05-18T01:09:41.468Z,14.10
2019-05-18T01:12:11.839Z,14.10
2019-05-18T01:14:42.161Z,14.20
2019-05-18T01:17:14.628Z,14.30
2019-05-18T01:19:45.003Z,14.30
2019-05-18T01:22:15.403Z,14.40
2019-05-18T01:24:45.775Z,14.30
2019-05-18T01:27:17.637Z,14.40
2019-05-18T01:29:47.979Z,14.40
2019-05-18T01:32:19.108Z,14.40
2019-05-18T01:34:54.153Z,14.40
2019-05-18T01:37:24.465Z,14.30
2019-05-18T01:39:54.974Z,14.30
2019-05-18T01:42:25.295Z,14.30
2019-05-18T01:45:15.398Z,14.30
2019-05-18T01:47:34.104Z,14.20
2019-05-18T01:50:13.088Z,14.20
2019-05-18T01:52:43.402Z,14.20
2019-05-18T01:55:14.325Z,14.20
2019-05-18T01:57:44.693Z,14.20
2019-05-18T02:00:16.221Z,14.10
2019-05-18T02:02:46.589Z,14.00
2019-05-18T02:05:16.916Z,14.00
2019-05-18T02:07:47.298Z,13.90
2019-05-18T02:10:18.218Z,13.80
2019-05-18T02:12:48.598Z,13.70
2019-05-18T02:15:19.126Z,13.60
2019-05-18T02:17:49.521Z,13.60
2019-05-18T02:20:19.987Z,13.50
2019-05-18T02:22:50.256Z,13.40
2019-05-18T02:25:20.710Z,13.30
2019-05-18T02:27:51.075Z,13.30
2019-05-18T02:30:21.559Z,13.30
2019-05-18T02:32:51.888Z,13.30
2019-05-18T02:35:22.252Z,13.20
2019-05-18T02:37:55.995Z,13.20
2019-05-18T02:40:26.367Z,13.20
2019-05-18T02:42:56.690Z,13.10
2019-05-18T02:45:27.056Z,13.10
2019-05-18T02:47:57.467Z,13.10
2019-05-18T02:50:30.437Z,13.10
2019-05-18T02:53:00.760Z,13.10
2019-05-18T02:55:31.186Z,13.10
2019-05-18T02:58:01.650Z,13.00
2019-05-18T03:00:32.042Z,13.00
2019-05-18T03:03:02.543Z,13.10
2019-05-18T03:05:33.157Z,13.00
2019-05-18T03:08:03.585Z,13.00
2019-05-18T03:10:34.139Z,13.00
2019-05-18T03:13:05.706Z,12.90
2019-05-18T03:15:36.182Z,12.80
2019-05-18T03:18:06.793Z,12.80
2019-05-18T03:20:37.203Z,12.70
2019-05-18T03:23:08.711Z,12.70
2019-05-18T03:25:39.031Z,12.60
2019-05-18T03:28:09.427Z,12.50
2019-05-18T03:30:39.772Z,12.50
2019-05-18T03:33:10.220Z,12.50
2019-05-18T03:35:40.537Z,12.50
2019-05-18T03:38:10.933Z,12.50
2019-05-18T03:40:41.290Z,12.50
2019-05-18T03:43:11.689Z,12.50
2019-05-18T03:45:42.078Z,12.60
2019-05-18T03:48:12.431Z,12.60
2019-05-18T03:50:44.107Z,12.60
2019-05-18T03:53:18.028Z,12.70
2019-05-18T03:55:46.401Z,12.70
2019-05-18T03:58:16.852Z,12.70
2019-05-18T04:00:47.339Z,12.80
2019-05-18T04:03:17.676Z,12.80
2019-05-18T04:05:48.115Z,12.90
2019-05-18T04:08:18.419Z,12.90
2019-05-18T04:10:48.793Z,12.90
2019-05-18T04:13:19.131Z,12.90
2019-05-18T04:15:49.506Z,13.00
2019-05-18T04:18:19.904Z,13.00
2019-05-18T04:20:50.266Z,13.00
2019-05-18T04:23:20.696Z,13.10
2019-05-18T04:25:51.131Z,13.10
2019-05-18T04:28:21.456Z,13.10
2019-05-18T04:30:51.822Z,13.10
2019-05-18T04:33:22.227Z,13.20
2019-05-18T04:35:52.596Z,13.20
2019-05-18T04:38:22.989Z,13.30
2019-05-18T04:40:53.364Z,13.30
2019-05-18T04:43:23.706Z,13.40
2019-05-18T04:45:54.075Z,13.40
2019-05-18T04:48:24.396Z,13.40
2019-05-18T04:50:54.756Z,13.50
2019-05-18T04:53:25.080Z,13.50
2019-05-18T04:55:55.458Z,13.60
2019-05-18T04:58:25.884Z,13.60
2019-05-18T05:00:56.261Z,13.70
2019-05-18T05:03:27.669Z,13.80
2019-05-18T05:05:58.031Z,13.90
2019-05-18T05:08:28.355Z,13.90
2019-05-18T05:10:58.743Z,14.00
2019-05-18T05:13:29.067Z,14.10
2019-05-18T05:15:59.499Z,14.20
2019-05-18T05:18:29.836Z,14.30
2019-05-18T05:21:00.251Z,14.30
2019-05-18T05:23:30.671Z,14.40
2019-05-18T05:26:01.027Z,14.50
2019-05-18T05:28:32.358Z,14.60
2019-05-18T05:31:02.825Z,14.70
2019-05-18T05:33:33.202Z,14.80
2019-05-18T05:36:04.527Z,14.90
2019-05-18T05:38:34.914Z,14.90
2019-05-18T05:41:05.280Z,15.00
2019-05-18T05:43:35.664Z,15.10
2019-05-18T05:46:06.071Z,15.20
2019-05-18T05:48:36.459Z,15.30
2019-05-18T05:51:06.805Z,15.40
2019-05-18T05:53:37.214Z,15.50
2019-05-18T05:56:07.591Z,15.60
2019-05-18T05:58:38.068Z,15.80
2019-05-18T06:01:08.491Z,15.90
2019-05-18T06:03:38.918Z,16.00
2019-05-18T06:06:09.427Z,16.10
2019-05-18T06:08:39.808Z,16.30
2019-05-18T06:11:10.162Z,16.40
2019-05-18T06:13:42.273Z,16.60
2019-05-18T06:16:12.555Z,16.70
2019-05-18T06:18:42.922Z,16.80
2019-05-18T06:21:13.301Z,16.90
2019-05-18T06:23:43.655Z,17.10
2019-05-18T06:26:13.985Z,17.20
2019-05-18T06:28:44.335Z,17.20
2019-05-18T06:31:14.688Z,17.30
2019-05-18T06:33:45.018Z,17.50
2019-05-18T06:36:15.475Z,17.60
2019-05-18T06:38:45.898Z,17.70
2019-05-18T06:41:16.279Z,17.90
2019-05-18T06:43:46.656Z,18.00
2019-05-18T06:46:17.027Z,18.10
2019-05-18T06:48:47.419Z,18.10
2019-05-18T06:51:17.743Z,18.20
2019-05-18T06:53:48.163Z,18.30
2019-05-18T06:56:19.667Z,18.40
2019-05-18T06:58:51.571Z,18.50
2019-05-18T07:01:22.004Z,18.60
2019-05-18T07:03:52.639Z,18.70
2019-05-18T07:06:23.046Z,18.80
2019-05-18T07:08:53.602Z,18.80
2019-05-18T07:11:24.082Z,18.90
2019-05-18T07:13:54.468Z,18.90
2019-05-18T07:16:24.894Z,18.90
2019-05-18T07:18:55.376Z,19.00
2019-05-18T07:21:27.595Z,19.00
2019-05-18T07:23:58.035Z,19.00
2019-05-18T07:26:28.368Z,19.00
2019-05-18T07:28:58.751Z,19.10
2019-05-18T07:31:29.251Z,19.30
2019-05-18T07:33:59.578Z,19.40
2019-05-18T07:36:30.003Z,19.60
2019-05-18T07:39:00.483Z,19.70
2019-05-18T07:41:45.562Z,19.80
2019-05-18T07:44:03.471Z,19.90
2019-05-18T07:46:33.842Z,19.90
2019-05-18T07:49:04.179Z,20.00
2019-05-18T07:51:37.221Z,19.90
2019-05-18T07:54:06.524Z,20.00
2019-05-18T07:56:36.887Z,20.00
2019-05-18T07:59:07.280Z,20.10
2019-05-18T08:01:37.689Z,20.20
2019-05-18T08:04:08.003Z,20.30
2019-05-18T08:06:38.386Z,20.30
2019-05-18T08:09:08.880Z,20.30
2019-05-18T08:11:39.278Z,20.30
2019-05-18T08:14:09.599Z,20.30
2019-05-18T08:16:39.957Z,20.40
2019-05-18T08:19:10.405Z,20.40
2019-05-18T08:21:52.911Z,20.40
2019-05-18T08:24:12.749Z,20.50
2019-05-18T08:26:43.552Z,20.50
2019-05-18T08:29:13.942Z,20.60
2019-05-18T08:31:44.298Z,20.70
2019-05-18T08:34:14.624Z,20.90
2019-05-18T08:36:45.008Z,21.00
2019-05-18T08:39:15.349Z,21.10
2019-05-18T08:41:48.601Z,21.00
2019-05-18T08:44:17.688Z,21.00
2019-05-18T08:46:49.158Z,21.10
2019-05-18T08:49:19.491Z,21.30
2019-05-18T08:51:49.950Z,21.30
2019-05-18T08:54:39.429Z,21.30
2019-05-18T08:57:09.820Z,21.50
2019-05-18T08:59:40.170Z,21.60
2019-05-18T09:02:10.583Z,21.80
2019-05-18T09:04:40.899Z,21.80
2019-05-18T09:07:11.266Z,21.80
2019-05-18T09:09:41.635Z,21.60
2019-05-18T09:12:12.103Z,21.70
2019-05-18T09:14:43.437Z,21.80
2019-05-18T09:17:13.818Z,21.80
2019-05-18T09:19:44.178Z,21.90
2019-05-18T09:22:22.854Z,22.00
2019-05-18T09:24:46.502Z,22.10
2019-05-18T09:27:16.865Z,22.10
2019-05-18T09:29:47.295Z,22.10
2019-05-18T09:32:17.670Z,22.00
2019-05-18T09:34:48.039Z,22.10
2019-05-18T09:37:18.400Z,22.10
2019-05-18T09:39:49.002Z,22.30
2019-05-18T09:42:19.374Z,22.60
2019-05-18T09:44:49.707Z,23.00
2019-05-18T09:47:20.103Z,23.30
2019-05-18T09:49:50.492Z,23.50
2019-05-18T09:52:20.836Z,23.70
2019-05-18T09:54:51.233Z,23.90
2019-05-18T09:57:21.679Z,23.90
2019-05-18T09:59:52.067Z,23.90
2019-05-18T10:02:22.426Z,23.80
2019-05-18T10:04:52.819Z,23.80
2019-05-18T10:07:23.243Z,23.80
2019-05-18T10:09:53.548Z,23.90
2019-05-18T10:12:24.816Z,23.90
2019-05-18T10:14:55.274Z,24.00
2019-05-18T10:17:25.666Z,24.10
2019-05-18T10:19:56.224Z,24.30
2019-05-18T10:22:26.610Z,24.30
2019-05-18T10:24:56.935Z,24.30
2019-05-18T10:27:27.308Z,24.10
2019-05-18T10:29:57.630Z,24.10
2019-05-18T10:32:27.992Z,24.20
2019-05-18T10:34:59.338Z,24.30
2019-05-18T10:37:29.711Z,24.50
2019-05-18T10:40:00.162Z,24.80
2019-05-18T10:42:34.214Z,25.10
2019-05-18T10:45:08.305Z,25.30
2019-05-18T10:47:39.943Z,25.70
2019-05-18T10:50:10.464Z,25.90
2019-05-18T10:52:40.851Z,26.00
2019-05-18T10:55:11.562Z,25.90
2019-05-18T10:57:42.415Z,25.80
2019-05-18T11:00:13.581Z,25.80
2019-05-18T11:02:43.982Z,26.00
2019-05-18T11:05:14.568Z,26.20
2019-05-18T11:07:44.937Z,26.50
2019-05-18T11:10:15.484Z,26.70
2019-05-18T11:12:45.939Z,27.00
2019-05-18T11:15:17.925Z,27.30
2019-05-18T11:17:48.256Z,27.50
2019-05-18T11:20:19.429Z,27.70
2019-05-18T11:22:49.801Z,27.90
2019-05-18T11:25:20.220Z,28.10
2019-05-18T11:27:55.247Z,28.20
2019-05-18T11:30:26.913Z,28.20
2019-05-18T11:33:00.772Z,28.10
2019-05-18T11:35:42.853Z,28.10
2019-05-18T11:38:18.480Z,28.20
2019-05-18T11:40:53.297Z,28.70
2019-05-18T11:43:23.742Z,28.90
2019-05-18T11:45:54.050Z,29.00
2019-05-18T11:48:26.273Z,29.40
2019-05-18T11:50:56.678Z,30.10
2019-05-18T11:53:27.107Z,30.90
2019-05-18T11:55:59.235Z,31.40
2019-05-18T11:58:29.670Z,31.80
2019-05-18T12:01:00.024Z,32.40
2019-05-18T12:03:30.465Z,32.90
2019-05-18T12:06:00.804Z,33.30
2019-05-18T12:08:31.172Z,33.30
2019-05-18T12:11:01.483Z,33.50
2019-05-18T12:13:34.088Z,34.10
2019-05-18T12:16:04.474Z,34.80
2019-05-18T12:18:34.840Z,35.50
2019-05-18T12:21:06.314Z,36.20
2019-05-18T12:23:36.683Z,36.80
2019-05-18T12:26:11.022Z,37.30
2019-05-18T12:28:41.449Z,37.60
2019-05-18T12:31:12.126Z,37.60
2019-05-18T12:33:42.499Z,37.70
2019-05-18T12:36:15.455Z,37.90
2019-05-18T12:38:44.886Z,38.00
2019-05-18T12:41:17.151Z,38.30
2019-05-18T12:43:47.592Z,38.70
2019-05-18T12:46:22.183Z,38.50
2019-05-18T12:48:53.002Z,37.80
2019-05-18T12:51:23.359Z,36.70
2019-05-18T12:53:53.716Z,35.60
2019-05-18T12:56:24.052Z,34.60
2019-05-18T12:58:54.428Z,33.80
2019-05-18T13:01:24.749Z,33.10
2019-05-18T13:03:55.118Z,32.60
2019-05-18T13:06:25.565Z,32.20
2019-05-18T13:08:55.936Z,31.80
2019-05-18T13:11:27.947Z,31.60
2019-05-18T13:13:58.310Z,31.70
2019-05-18T13:16:28.623Z,32.10
2019-05-18T13:18:59.030Z,32.60
2019-05-18T13:21:29.489Z,33.50
2019-05-18T13:23:59.971Z,34.60
2019-05-18T13:26:30.295Z,35.70
2019-05-18T13:29:00.637Z,36.70
2019-05-18T13:31:30.977Z,37.60
2019-05-18T13:34:01.344Z,38.40
2019-05-18T13:36:31.669Z,38.90
2019-05-18T13:39:02.049Z,39.30
2019-05-18T13:41:33.595Z,39.60
2019-05-18T13:44:03.947Z,39.80
2019-05-18T13:46:34.296Z,39.70
2019-05-18T13:49:07.180Z,39.10
2019-05-18T13:51:37.738Z,38.10
2019-05-18T13:54:08.171Z,37.20
2019-05-18T13:56:39.962Z,36.60
2019-05-18T13:59:10.457Z,36.40
2019-05-18T14:01:40.839Z,36.30
2019-05-18T14:04:11.251Z,35.90
2019-05-18T14:06:41.596Z,35.90
2019-05-18T14:09:12.285Z,35.80
2019-05-18T14:11:43.570Z,35.60
2019-05-18T14:14:13.935Z,35.40
2019-05-18T14:16:55.774Z,35.20
2019-05-18T14:19:26.188Z,34.70
2019-05-18T14:21:56.572Z,34.20
2019-05-18T14:24:26.951Z,33.60
2019-05-18T14:26:57.309Z,32.90
2019-05-18T14:29:27.771Z,32.30
2019-05-18T14:31:58.094Z,31.70
2019-05-18T14:34:28.476Z,31.10
2019-05-18T14:36:58.796Z,30.50
2019-05-18T14:39:40.270Z,29.60
2019-05-18T14:42:11.666Z,28.90
2019-05-18T14:44:49.912Z,28.30
2019-05-18T14:47:20.383Z,27.80
2019-05-18T14:49:50.826Z,27.20
2019-05-18T14:52:22.215Z,26.40
2019-05-18T14:54:52.582Z,25.40
2019-05-18T14:57:25.664Z,24.40
2019-05-18T14:59:54.905Z,23.60
2019-05-18T15:02:25.333Z,22.80
2019-05-18T15:04:57.017Z,22.10
2019-05-18T15:07:27.541Z,21.40
2019-05-18T15:09:57.930Z,20.70
2019-05-18T15:12:29.263Z,19.90
2019-05-18T15:14:59.616Z,19.20
2019-05-18T15:17:29.965Z,18.60
2019-05-18T15:20:00.344Z,18.20
2019-05-18T15:22:30.754Z,17.70
2019-05-18T15:25:01.193Z,17.20
2019-05-18T15:27:32.698Z,16.70
2019-05-18T15:30:03.185Z,16.10
2019-05-18T15:32:33.563Z,15.80
2019-05-18T15:35:04.143Z,15.60
2019-05-18T15:37:35.434Z,15.50
2019-05-18T15:40:06.540Z,15.40
2019-05-18T15:42:36.866Z,15.30
2019-05-18T15:45:07.366Z,15.30
2019-05-18T15:47:37.663Z,15.40
2019-05-18T15:50:08.595Z,15.40
2019-05-18T15:52:39.111Z,15.50
2019-05-18T15:55:09.889Z,15.60
2019-05-18T15:57:40.239Z,15.70
2019-05-18T16:00:11.305Z,15.80
2019-05-18T16:02:41.823Z,15.80
2019-05-18T16:05:12.613Z,15.80
2019-05-18T16:07:43.010Z,15.80
2019-05-18T16:10:14.144Z,15.90
2019-05-18T16:12:44.503Z,15.90
2019-05-18T16:15:16.084Z,16.00
2019-05-18T16:17:46.419Z,16.10
2019-05-18T16:20:18.521Z,16.20
2019-05-18T16:22:48.898Z,16.30
2019-05-18T16:25:19.284Z,16.30
2019-05-18T16:27:49.646Z,16.40
2019-05-18T16:30:20.177Z,16.50
2019-05-18T16:32:50.631Z,16.50
2019-05-18T16:35:21.119Z,16.60
2019-05-18T16:37:51.521Z,16.60
2019-05-18T16:40:22.168Z,16.60
2019-05-18T16:42:52.536Z,16.70
2019-05-18T16:45:23.007Z,16.70
2019-05-18T16:47:53.339Z,16.70
2019-05-18T16:50:23.739Z,16.80
2019-05-18T16:52:54.071Z,16.80
2019-05-18T16:55:24.468Z,16.80
2019-05-18T16:57:54.794Z,16.80
2019-05-18T17:00:25.286Z,16.80
2019-05-18T17:02:55.742Z,16.80
2019-05-18T17:05:26.257Z,16.80
2019-05-18T17:07:56.840Z,16.80
2019-05-18T17:10:27.341Z,16.70
2019-05-18T17:12:57.780Z,16.60
2019-05-18T17:15:28.213Z,16.50
2019-05-18T17:17:58.726Z,16.40
2019-05-18T17:20:29.174Z,16.30
2019-05-18T17:22:59.590Z,16.20
2019-05-18T17:25:30.119Z,16.20
2019-05-18T17:28:00.618Z,16.10
2019-05-18T17:30:30.990Z,16.10
2019-05-18T17:33:01.336Z,16.00
2019-05-18T17:35:31.781Z,16.00
2019-05-18T17:38:02.104Z,16.00
2019-05-18T17:40:32.484Z,15.90
2019-05-18T17:43:02.800Z,15.90
2019-05-18T17:45:33.285Z,15.90
2019-05-18T17:48:03.817Z,15.90
2019-05-18T17:50:34.238Z,15.90
2019-05-18T17:53:04.787Z,15.80
2019-05-18T17:55:35.151Z,15.80
2019-05-18T17:58:05.547Z,15.80
2019-05-18T18:00:35.982Z,15.80
2019-05-18T18:03:06.572Z,15.80
2019-05-18T18:05:37.169Z,15.70
2019-05-18T18:08:07.534Z,15.70
2019-05-18T18:10:37.931Z,15.70
2019-05-18T18:13:09.641Z,15.70
2019-05-18T18:15:40.088Z,15.70
2019-05-18T18:18:10.440Z,15.70
2019-05-18T18:20:40.817Z,15.70
2019-05-18T18:23:11.306Z,15.70
2019-05-18T18:25:41.692Z,15.70
2019-05-18T18:28:12.083Z,15.70
2019-05-18T18:30:42.484Z,15.70
2019-05-18T18:33:13.010Z,15.70
2019-05-18T18:35:43.537Z,15.70
2019-05-18T18:38:13.955Z,15.70
2019-05-18T18:40:44.735Z,15.70
2019-05-18T18:43:15.178Z,15.70
2019-05-18T18:45:45.571Z,15.70
2019-05-18T18:48:16.011Z,15.70
2019-05-18T18:50:46.676Z,15.70
2019-05-18T18:53:18.004Z,15.70
2019-05-18T18:55:48.337Z,15.60
2019-05-18T18:58:19.028Z,15.60
2019-05-18T19:00:49.512Z,15.60
2019-05-18T19:03:19.932Z,15.70
2019-05-18T19:05:50.769Z,15.60
2019-05-18T19:08:21.789Z,15.60
2019-05-18T19:10:53.092Z,15.70
2019-05-18T19:13:24.341Z,15.70
2019-05-18T19:15:55.536Z,15.60
2019-05-18T19:18:26.995Z,15.60
2019-05-18T19:20:57.774Z,15.60
2019-05-18T19:23:28.226Z,15.60
2019-05-18T19:25:58.528Z,15.60
2019-05-18T19:28:28.997Z,15.60
2019-05-18T19:30:59.394Z,15.50
2019-05-18T19:33:29.811Z,15.50
2019-05-18T19:36:00.139Z,15.50
2019-05-18T19:38:30.672Z,15.50
2019-05-18T19:41:01.024Z,15.50
2019-05-18T19:43:31.675Z,15.40
2019-05-18T19:46:03.014Z,15.40
2019-05-18T19:48:33.381Z,15.40
2019-05-18T19:51:03.715Z,15.40
2019-05-18T19:53:34.163Z,15.40
2019-05-18T19:56:04.535Z,15.40
2019-05-18T19:58:35.000Z,15.40
2019-05-18T20:01:05.368Z,15.40
2019-05-18T20:03:36.692Z,15.40
2019-05-18T20:06:07.067Z,15.30
2019-05-18T20:08:37.469Z,15.30
2019-05-18T20:11:07.853Z,15.30
2019-05-18T20:13:38.382Z,15.30
2019-05-18T20:16:08.797Z,15.30
2019-05-18T20:18:39.324Z,15.30
2019-05-18T20:21:10.059Z,15.30
2019-05-18T20:23:40.621Z,15.30
2019-05-18T20:26:11.039Z,15.30
2019-05-18T20:28:56.800Z,15.20
2019-05-18T20:31:27.191Z,15.20
2019-05-18T20:33:57.563Z,15.20
2019-05-18T20:36:28.107Z,15.20
2019-05-18T20:38:58.435Z,15.10
2019-05-18T20:41:28.852Z,15.10
2019-05-18T20:43:59.282Z,15.10
2019-05-18T20:46:29.733Z,15.00
2019-05-18T20:49:00.206Z,15.10
2019-05-18T20:51:30.680Z,15.10
2019-05-18T20:54:01.114Z,15.10
2019-05-18T20:56:31.612Z,15.10
2019-05-18T20:59:01.923Z,15.20
2019-05-18T21:01:32.438Z,15.20
2019-05-18T21:04:02.828Z,15.20
2019-05-18T21:06:33.238Z,15.20
2019-05-18T21:09:04.796Z,15.20
2019-05-18T21:11:36.377Z,15.20
2019-05-18T21:14:06.810Z,15.20
2019-05-18T21:16:37.406Z,15.20
2019-05-18T21:19:07.820Z,15.20
2019-05-18T21:21:38.366Z,15.20
2019-05-18T21:24:08.767Z,15.10
2019-05-18T21:26:40.009Z,15.20
2019-05-18T21:29:10.436Z,15.10
2019-05-18T21:31:42.064Z,15.20
2019-05-18T21:34:12.560Z,15.20
2019-05-18T21:36:43.925Z,15.10
2019-05-18T21:39:14.355Z,15.10
2019-05-18T21:41:44.718Z,15.20
2019-05-18T21:44:15.048Z,15.20
2019-05-18T21:46:45.500Z,15.20
2019-05-18T21:49:15.847Z,15.20
2019-05-18T21:51:46.220Z,15.20
2019-05-18T21:54:16.547Z,15.20
2019-05-18T21:56:47.188Z,15.20
2019-05-18T21:59:17.508Z,15.20
2019-05-18T22:01:48.004Z,15.20
2019-05-18T22:04:18.341Z,15.20
2019-05-18T22:06:48.825Z,15.10
2019-05-18T22:09:19.117Z,15.10
2019-05-18T22:11:49.507Z,15.10
2019-05-18T22:14:19.928Z,15.10
2019-05-18T22:16:50.291Z,15.10
2019-05-18T22:19:20.635Z,15.00
2019-05-18T22:21:51.111Z,15.00
2019-05-18T22:24:21.530Z,14.90
2019-05-18T22:26:51.910Z,14.90
2019-05-18T22:29:24.606Z,14.80
2019-05-18T22:31:57.992Z,14.80
2019-05-18T22:34:31.515Z,14.80
2019-05-18T22:37:05.211Z,14.70
2019-05-18T22:39:37.236Z,14.70
2019-05-18T22:42:07.599Z,14.60
2019-05-18T22:44:37.931Z,14.60
2019-05-18T22:47:08.312Z,14.50
2019-05-18T22:49:38.629Z,14.50
2019-05-18T22:52:09.020Z,14.40
2019-05-18T22:54:41.436Z,14.40
2019-05-18T22:57:12.028Z,14.30
2019-05-18T22:59:42.368Z,14.30
2019-05-18T23:02:12.752Z,14.30
2019-05-18T23:04:43.854Z,14.20
2019-05-18T23:07:14.379Z,14.20
2019-05-18T23:09:44.732Z,14.20
2019-05-18T23:12:15.134Z,14.20
2019-05-18T23:14:45.489Z,14.20
2019-05-18T23:17:15.889Z,14.20
2019-05-18T23:19:46.244Z,14.20
2019-05-18T23:22:16.687Z,14.30
2019-05-18T23:24:47.022Z,14.30
2019-05-18T23:27:17.390Z,14.20
2019-05-18T23:29:47.718Z,14.30
2019-05-18T23:32:18.165Z,14.30
2019-05-18T23:34:48.512Z,14.30
2019-05-18T23:37:18.983Z,14.30
2019-05-18T23:39:49.334Z,14.30
2019-05-18T23:42:19.707Z,14.40
2019-05-18T23:44:51.161Z,14.30
2019-05-18T23:47:21.555Z,14.30
2019-05-18T23:49:51.881Z,14.30
2019-05-18T23:52:22.333Z,14.30
2019-05-18T23:54:52.682Z,14.30
2019-05-18T23:57:23.091Z,14.30
2019-05-18T23:59:53.437Z,14.30
